• Join FlightAware (Why Join?)
  • Login
  • US Flag 
09:08PM EDT


 

Airport Tracker/Info


-or-


 

Live Flight TrackerFlight Track Log ✈ N716MB ✈ 30-Apr-2013 ✈ KPTK - KVTA

Flight Track Log - Related Links

Times and Time Zones

All times are in EDT time to prevent confusion due to time zone crossing. See the N716MB flight status page for this flight to view local times or setup timezone preferences in your user account.

Time Position Orientation Groundspeed Altitude Reporting Facility
EDT Latitude Longitude Course Direction KTS MPH feet Rate Location/Type
07:25PM 42.7117 -83.4683 16° North 242 278 5,300  Level Cleveland Center
07:25PM 42.7244 -83.3783 79° East 246 283 8,300 3,180 Climbing Cleveland Center
07:26PM 42.7283 -83.2967 86° East 283 326 11,400 2,400 Climbing Cleveland Center
07:27PM 42.7014 -83.1994 111° Southeast 279 321 13,100 1,440 Climbing Cleveland Center
07:28PM 42.6161 -83.1958 178° South 238 274 14,300 1,500 Climbing Cleveland Center
07:29PM 42.6575 -83.4174 164° South  Level Estimated
07:29PM 42.5303 -83.2064 185° South 266 306 16,200  Level Cleveland Center
07:30PM 42.4256 -83.2272 188° South 320 368 17,000 360 Climbing Cleveland Center
07:31PM 42.3272 -83.2400 185° South 356 410 17,000  Level Cleveland Center
07:32PM 42.2311 -83.2556 187° South 371 427 17,000  Level Cleveland Center
07:33PM 42.1286 -83.2711 186° South 371 427 17,000  Level Cleveland Center
07:34PM 42.0344 -83.2867 187° South 363 418 17,000  Level Cleveland Center
07:35PM 41.9339 -83.3047 188° South 368 423 17,000  Level Cleveland Center
07:36PM 41.8378 -83.3172 186° South 368 423 17,000  Level Cleveland Center
07:37PM 41.7397 -83.3131 178° South 363 418 17,000  Level Cleveland Center
07:38PM 41.6439 -83.3092 178° South 358 412 17,000  Level Cleveland Center
07:39PM 41.5442 -83.3019 177° South 353 406 17,000  Level Cleveland Center
07:40PM 41.4464 -83.2953 177° South 353 406 17,000  Level Cleveland Center
07:41PM 41.3464 -83.2883 177° South 358 412 17,000  Level Cleveland Center
07:42PM 41.2483 -83.2842 178° South 358 412 17,000 -60 Level Cleveland Center
07:43PM 41.1506 -83.2800 178° South 358 412 16,900 -540 Descending Cleveland Center
07:44PM 41.0547 -83.2706 176° South 358 412 16,000 -1,200 Descending Cleveland Center
07:45PM 40.9569 -83.2667 178° South 351 404 14,500 -1,560 Descending Cleveland Center
07:46PM 40.8633 -83.2600 177° South 346 398 12,900 -1,620 Descending Cleveland Center
07:47PM 40.7739 -83.2536 177° South 336 387 11,300 -1,500 Descending Cleveland Center
07:48PM 40.6903 -83.2558 181° South 318 366 10,000 -480 Descending Cleveland Center
07:50PM 40.5467 -83.2425 176° South 303 349 10,000  Level Indianapolis Center
07:51PM 40.4619 -83.2342 176° South 302 348 10,000  Level Indianapolis Center
07:51PM 40.4422 -83.2153 144° Southeast 307 353 10,000  Level Indianapolis Center
07:52PM 40.4044 -83.1494 127° Southeast 307 353 10,000 -600 Level Indianapolis Center
07:53PM 40.3572 -83.0639 126° Southeast 292 336 9,000 -1,080 Descending Indianapolis Center
07:54PM 40.3117 -82.9806 126° Southeast 283 326 7,800 -1,380 Descending Indianapolis Center
07:55PM 40.2606 -82.9058 132° Southeast 276 318 6,200 -1,500 Descending Indianapolis Center
07:56PM 40.2089 -82.8383 135° Southeast 265 305 4,800 -1,080 Descending Indianapolis Center
07:57PM 40.1606 -82.7747 135° Southeast 250 288 4,000 -780 Descending Indianapolis Center
07:58PM 40.1125 -82.7111 135° Southeast 246 283 3,300 -540 Descending Indianapolis Center
07:59PM 40.0578 -82.6450 137° Southeast 238 274 2,900 -240 Descending Indianapolis Center
08:00PM 40.0206 -82.5956 135° Southeast 232 267 2,900  Level Indianapolis Center